createdAt,value
2019-05-23T00:02:36.242Z,10.30
2019-05-23T00:05:12.890Z,10.30
2019-05-23T00:07:42.021Z,10.30
2019-05-23T00:10:12.163Z,10.30
2019-05-23T00:12:54.299Z,10.20
2019-05-23T00:15:27.059Z,10.10
2019-05-23T00:17:56.639Z,10.10
2019-05-23T00:20:24.496Z,10.00
2019-05-23T00:22:52.236Z,10.00
2019-05-23T00:25:19.504Z,10.00
2019-05-23T00:27:47.136Z,10.00
2019-05-23T00:30:20.501Z,10.00
2019-05-23T00:32:52.572Z,10.00
2019-05-23T00:35:20.272Z,9.90
2019-05-23T00:37:48.556Z,9.90
2019-05-23T00:40:16.499Z,9.90
2019-05-23T00:42:44.966Z,9.90
2019-05-23T00:45:12.602Z,9.90
2019-05-23T00:47:40.241Z,9.80
2019-05-23T00:50:08.003Z,9.80
2019-05-23T00:52:35.564Z,9.90
2019-05-23T00:55:03.412Z,9.80
2019-05-23T00:57:31.220Z,9.70
2019-05-23T00:59:59.363Z,9.70
2019-05-23T01:02:27.055Z,9.70
2019-05-23T01:04:55.188Z,9.70
2019-05-23T01:07:22.446Z,9.60
2019-05-23T01:09:49.971Z,9.60
2019-05-23T01:12:17.427Z,9.60
2019-05-23T01:14:46.443Z,9.60
2019-05-23T01:17:14.601Z,9.60
2019-05-23T01:19:42.644Z,9.60
2019-05-23T01:22:12.111Z,9.60
2019-05-23T01:24:41.385Z,9.60
2019-05-23T01:27:09.634Z,9.60
2019-05-23T01:29:40.928Z,9.60
2019-05-23T01:32:15.320Z,9.60
2019-05-23T01:34:44.172Z,9.50
2019-05-23T01:37:13.148Z,9.50
2019-05-23T01:39:40.516Z,9.40
2019-05-23T01:42:08.796Z,9.40
2019-05-23T01:44:36.683Z,9.40
2019-05-23T01:47:04.355Z,9.40
2019-05-23T01:49:32.284Z,9.30
2019-05-23T01:52:00.603Z,9.30
2019-05-23T01:54:28.070Z,9.30
2019-05-23T01:56:55.413Z,9.20
2019-05-23T01:59:23.343Z,9.20
2019-05-23T02:01:52.659Z,9.20
2019-05-23T02:04:20.063Z,9.20
2019-05-23T02:06:47.620Z,9.10
2019-05-23T02:09:15.274Z,9.10
2019-05-23T02:11:42.400Z,9.10
2019-05-23T02:14:10.655Z,9.00
2019-05-23T02:16:38.317Z,9.00
2019-05-23T02:19:06.507Z,8.90
2019-05-23T02:21:33.815Z,8.90
2019-05-23T02:24:01.543Z,8.90
2019-05-23T02:26:30.720Z,8.90
2019-05-23T02:28:59.984Z,8.90
2019-05-23T02:31:27.642Z,8.90
2019-05-23T02:33:55.190Z,8.90
2019-05-23T02:36:22.599Z,8.80
2019-05-23T02:39:15.345Z,8.70
2019-05-23T02:41:49.610Z,8.70
2019-05-23T02:44:21.419Z,8.70
2019-05-23T02:47:09.360Z,8.70
2019-05-23T02:49:37.003Z,8.70
2019-05-23T02:52:26.904Z,8.70
2019-05-23T02:54:55.353Z,8.70
2019-05-23T02:57:24.668Z,8.70
2019-05-23T02:59:56.796Z,8.60
2019-05-23T03:03:01.514Z,8.50
2019-05-23T03:05:30.548Z,8.50
2019-05-23T03:08:00.561Z,8.50
2019-05-23T03:10:47.985Z,8.50
2019-05-23T03:13:16.265Z,8.50
2019-05-23T03:15:44.799Z,8.40
2019-05-23T03:18:12.238Z,8.40
2019-05-23T03:20:39.574Z,8.30
2019-05-23T03:23:12.161Z,8.30
2019-05-23T03:26:18.637Z,8.30
2019-05-23T03:28:47.893Z,8.30
2019-05-23T03:31:29.530Z,8.30
2019-05-23T03:33:51.237Z,8.20
2019-05-23T03:36:18.869Z,8.30
2019-05-23T03:38:46.657Z,8.30
2019-05-23T03:41:14.096Z,8.30
2019-05-23T03:43:41.859Z,8.30
2019-05-23T03:46:11.792Z,8.30
2019-05-23T03:48:40.759Z,8.30
2019-05-23T03:51:09.785Z,8.40
2019-05-23T03:53:37.863Z,8.40
2019-05-23T03:56:06.983Z,8.40
2019-05-23T03:58:34.425Z,8.30
2019-05-23T04:01:04.579Z,8.30
2019-05-23T04:03:32.329Z,8.30
2019-05-23T04:06:00.071Z,8.30
2019-05-23T04:08:28.356Z,8.40
2019-05-23T04:10:57.557Z,8.40
2019-05-23T04:13:25.614Z,8.40
2019-05-23T04:15:52.892Z,8.50
2019-05-23T04:18:20.248Z,8.60
2019-05-23T04:20:47.634Z,8.60
2019-05-23T04:23:15.182Z,8.70
2019-05-23T04:25:42.588Z,8.80
2019-05-23T04:28:10.070Z,8.80
2019-05-23T04:30:37.442Z,8.90
2019-05-23T04:33:04.934Z,8.90
2019-05-23T04:35:32.260Z,9.00
2019-05-23T04:37:59.957Z,9.00
2019-05-23T04:40:27.411Z,9.10
2019-05-23T04:42:54.627Z,9.10
2019-05-23T04:45:22.508Z,9.10
2019-05-23T04:47:49.773Z,9.20
2019-05-23T04:50:17.537Z,9.20
2019-05-23T04:52:45.222Z,9.30
2019-05-23T04:55:14.618Z,9.30
2019-05-23T04:57:42.668Z,9.40
2019-05-23T05:00:11.393Z,9.50
2019-05-23T05:02:39.579Z,9.50
2019-05-23T05:05:07.896Z,9.50
2019-05-23T05:07:35.788Z,9.70
2019-05-23T05:10:04.083Z,9.80
2019-05-23T05:12:31.578Z,9.90
2019-05-23T05:14:59.326Z,10.00
2019-05-23T05:17:26.597Z,10.10
2019-05-23T05:19:53.832Z,10.30
2019-05-23T05:22:21.800Z,10.40
2019-05-23T05:24:49.303Z,10.50
2019-05-23T05:27:18.809Z,10.70
2019-05-23T05:29:46.041Z,11.00
2019-05-23T05:32:14.673Z,11.00
2019-05-23T05:34:42.427Z,11.20
2019-05-23T05:37:09.692Z,11.50
2019-05-23T05:39:37.061Z,11.80
2019-05-23T05:42:06.985Z,12.00
2019-05-23T05:44:34.247Z,12.20
2019-05-23T05:47:01.616Z,12.30
2019-05-23T05:49:28.877Z,12.50
2019-05-23T05:51:56.118Z,12.50
2019-05-23T05:54:23.436Z,12.50
2019-05-23T05:56:50.702Z,12.60
2019-05-23T05:59:18.111Z,12.70
2019-05-23T06:01:45.456Z,12.80
2019-05-23T06:04:13.501Z,12.80
2019-05-23T06:06:58.712Z,12.90
2019-05-23T06:09:29.124Z,12.90
2019-05-23T06:11:56.751Z,12.90
2019-05-23T06:14:24.224Z,12.90
2019-05-23T06:16:53.496Z,12.80
2019-05-23T06:19:21.555Z,13.00
2019-05-23T06:21:49.208Z,13.30
2019-05-23T06:24:16.448Z,13.40
2019-05-23T06:26:44.228Z,13.60
2019-05-23T06:29:11.963Z,13.80
2019-05-23T06:31:40.727Z,14.10
2019-05-23T06:34:08.292Z,14.30
2019-05-23T06:36:36.220Z,14.50
2019-05-23T06:39:05.886Z,14.50
2019-05-23T06:41:34.165Z,14.60
2019-05-23T06:44:01.453Z,14.60
2019-05-23T06:46:28.751Z,14.70
2019-05-23T06:48:56.052Z,14.80
2019-05-23T06:51:23.432Z,15.00
2019-05-23T06:53:51.485Z,15.20
2019-05-23T06:56:18.729Z,15.30
2019-05-23T06:58:46.128Z,15.50
2019-05-23T07:01:13.761Z,15.60
2019-05-23T07:03:43.632Z,15.80
2019-05-23T07:06:14.684Z,15.90
2019-05-23T07:08:42.547Z,16.00
2019-05-23T07:11:09.874Z,16.30
2019-05-23T07:13:37.856Z,16.50
2019-05-23T07:16:05.291Z,16.60
2019-05-23T07:18:32.556Z,16.60
2019-05-23T07:20:59.857Z,16.70
2019-05-23T07:23:27.139Z,17.00
2019-05-23T07:25:54.380Z,17.20
2019-05-23T07:28:21.616Z,17.30
2019-05-23T07:30:49.284Z,17.40
2019-05-23T07:33:16.612Z,17.60
2019-05-23T07:35:43.888Z,17.80
2019-05-23T07:38:11.458Z,17.90
2019-05-23T07:40:38.927Z,18.10
2019-05-23T07:43:06.758Z,18.30
2019-05-23T07:45:40.288Z,18.40
2019-05-23T07:50:34.739Z,18.70
2019-05-23T07:53:03.679Z,18.90
2019-05-23T07:55:36.109Z,19.10
2019-05-23T07:58:03.654Z,19.20
2019-05-23T08:00:34.028Z,19.30
2019-05-23T08:03:04.085Z,19.50
2019-05-23T08:05:31.501Z,19.60
2019-05-23T08:07:58.852Z,19.70
2019-05-23T08:10:33.712Z,19.90
2019-05-23T08:15:23.472Z,20.10
2019-05-23T08:17:50.833Z,20.00
2019-05-23T08:20:18.233Z,20.00
2019-05-23T08:22:45.928Z,20.10
2019-05-23T08:25:13.165Z,20.50
2019-05-23T08:27:40.893Z,20.70
2019-05-23T08:30:08.532Z,20.60
2019-05-23T08:32:36.433Z,20.80
2019-05-23T08:35:04.609Z,21.10
2019-05-23T08:37:31.973Z,21.30
2019-05-23T08:39:59.753Z,21.40
2019-05-23T08:44:54.899Z,21.40
2019-05-23T08:47:22.756Z,21.40
2019-05-23T08:49:50.995Z,21.30
2019-05-23T08:52:18.243Z,21.60
2019-05-23T08:54:47.711Z,21.80
2019-05-23T08:57:14.936Z,21.90
2019-05-23T08:59:42.717Z,21.90
2019-05-23T09:02:11.609Z,22.00
2019-05-23T09:04:39.010Z,22.00
2019-05-23T09:07:06.557Z,22.30
2019-05-23T09:09:33.913Z,22.40
2019-05-23T09:12:01.151Z,22.60
2019-05-23T09:14:28.922Z,22.70
2019-05-23T09:16:56.162Z,22.90
2019-05-23T09:19:24.440Z,23.00
2019-05-23T09:21:57.560Z,23.10
2019-05-23T09:24:20.929Z,23.00
2019-05-23T09:26:48.483Z,23.20
2019-05-23T09:29:16.003Z,23.70
2019-05-23T09:34:10.739Z,23.80
2019-05-23T09:36:38.291Z,23.40
2019-05-23T09:39:07.770Z,23.30
2019-05-23T09:41:35.322Z,23.30
2019-05-23T09:44:02.625Z,23.50
2019-05-23T09:46:30.565Z,23.90
2019-05-23T09:48:57.862Z,24.30
2019-05-23T09:51:25.229Z,24.20
2019-05-23T09:53:52.588Z,24.10
2019-05-23T09:56:19.850Z,23.90
2019-05-23T09:58:47.086Z,23.90
2019-05-23T10:01:15.561Z,23.90
2019-05-23T10:03:42.902Z,24.10
2019-05-23T10:06:10.368Z,24.00
2019-05-23T10:08:37.641Z,24.00
2019-05-23T10:11:04.969Z,23.70
2019-05-23T10:16:09.502Z,23.80
2019-05-23T10:18:37.424Z,24.00
2019-05-23T10:21:05.028Z,24.20
2019-05-23T10:23:32.823Z,24.10
2019-05-23T10:26:00.127Z,24.20
2019-05-23T10:28:27.445Z,24.40
2019-05-23T10:30:54.707Z,24.10
2019-05-23T10:33:21.965Z,24.00
2019-05-23T10:35:59.635Z,24.10
2019-05-23T10:38:18.412Z,24.10
2019-05-23T10:40:45.863Z,24.20
2019-05-23T10:43:13.103Z,24.40
2019-05-23T10:48:08.293Z,24.50
2019-05-23T10:50:44.106Z,24.30
2019-05-23T10:53:04.845Z,24.50
2019-05-23T10:55:32.206Z,24.60
2019-05-23T10:57:59.430Z,24.90
2019-05-23T11:00:28.120Z,25.40
2019-05-23T11:02:55.431Z,25.40
2019-05-23T11:05:22.935Z,25.80
2019-05-23T11:07:50.914Z,25.80
2019-05-23T11:10:19.768Z,25.70
2019-05-23T11:12:47.053Z,25.50
2019-05-23T11:15:15.210Z,25.00
2019-05-23T11:17:43.280Z,24.90
2019-05-23T11:20:12.103Z,24.90
2019-05-23T11:22:39.635Z,25.00
2019-05-23T11:25:09.221Z,24.80
2019-05-23T11:27:36.879Z,25.10
2019-05-23T11:32:31.678Z,25.20
2019-05-23T11:34:59.216Z,25.40
2019-05-23T11:37:26.555Z,25.30
2019-05-23T11:39:53.912Z,25.20
2019-05-23T11:42:21.572Z,25.30
2019-05-23T11:44:48.814Z,25.60
2019-05-23T11:47:16.221Z,25.70
2019-05-23T11:49:44.643Z,26.00
2019-05-23T11:52:12.593Z,26.00
2019-05-23T11:54:39.993Z,25.50
2019-05-23T11:57:08.468Z,25.40
2019-05-23T11:59:35.757Z,25.60
2019-05-23T12:02:35.240Z,25.70
2019-05-23T12:05:05.881Z,26.00
2019-05-23T12:07:33.408Z,25.80
2019-05-23T12:10:00.829Z,25.70
2019-05-23T12:14:55.941Z,25.80
2019-05-23T12:17:25.404Z,25.80
2019-05-23T12:19:52.953Z,25.70
2019-05-23T12:22:20.913Z,25.80
2019-05-23T12:24:48.192Z,25.90
2019-05-23T12:27:15.469Z,25.80
2019-05-23T12:29:43.075Z,25.80
2019-05-23T12:32:12.222Z,25.50
2019-05-23T12:34:39.497Z,25.40
2019-05-23T12:37:22.058Z,25.60
2019-05-23T12:39:36.040Z,25.70
2019-05-23T12:42:03.425Z,25.80
2019-05-23T12:44:30.698Z,25.90
2019-05-23T12:46:58.653Z,25.60
2019-05-23T12:49:33.532Z,25.60
2019-05-23T12:52:01.015Z,25.40
2019-05-23T12:54:28.635Z,25.90
2019-05-23T12:56:56.236Z,26.00
2019-05-23T12:59:24.202Z,25.70
2019-05-23T13:01:53.594Z,25.50
2019-05-23T13:04:21.138Z,25.70
2019-05-23T13:06:50.205Z,25.70
2019-05-23T13:09:17.563Z,25.70
2019-05-23T13:11:44.800Z,25.60
2019-05-23T13:14:12.357Z,25.40
2019-05-23T13:16:39.690Z,25.50
2019-05-23T13:19:06.945Z,25.50
2019-05-23T13:21:34.364Z,25.80
2019-05-23T13:26:29.044Z,25.80
2019-05-23T13:28:56.480Z,25.60
2019-05-23T13:31:24.172Z,25.70
2019-05-23T13:33:51.498Z,25.90
2019-05-23T13:36:18.755Z,26.00
2019-05-23T13:38:46.531Z,26.00
2019-05-23T13:41:13.841Z,26.10
2019-05-23T13:43:41.525Z,26.20
2019-05-23T13:46:08.796Z,26.20
2019-05-23T13:48:36.154Z,26.20
2019-05-23T13:51:03.422Z,26.10
2019-05-23T13:53:31.464Z,26.00
2019-05-23T13:55:59.048Z,25.70
2019-05-23T13:58:27.468Z,25.90
2019-05-23T14:00:54.880Z,25.90
2019-05-23T14:03:22.394Z,26.00
2019-05-23T14:05:49.631Z,26.10
2019-05-23T14:08:19.279Z,26.00
2019-05-23T14:10:46.707Z,26.00
2019-05-23T14:13:14.184Z,26.20
2019-05-23T14:15:43.699Z,26.00
2019-05-23T14:18:15.111Z,26.10
2019-05-23T14:23:17.751Z,26.20
2019-05-23T14:25:45.134Z,25.90
2019-05-23T14:28:12.423Z,25.50
2019-05-23T14:30:43.981Z,25.50
2019-05-23T14:33:22.816Z,25.50
2019-05-23T14:35:51.053Z,25.70
2019-05-23T14:38:30.297Z,25.60
2019-05-23T14:40:47.654Z,25.70
2019-05-23T14:43:19.631Z,25.70
2019-05-23T14:46:10.598Z,25.70
2019-05-23T14:48:58.828Z,25.80
2019-05-23T14:51:44.058Z,25.80
2019-05-23T14:54:36.222Z,25.90
2019-05-23T14:57:04.710Z,25.90
2019-05-23T14:59:31.949Z,25.70
2019-05-23T15:01:59.624Z,25.70
2019-05-23T15:04:26.887Z,25.50
2019-05-23T15:06:54.160Z,25.30
2019-05-23T15:09:22.061Z,25.20
2019-05-23T15:11:49.685Z,25.20
2019-05-23T15:14:17.004Z,25.20
2019-05-23T15:16:44.265Z,25.40
2019-05-23T15:19:11.667Z,25.30
2019-05-23T15:21:39.111Z,25.20
2019-05-23T15:24:06.453Z,25.10
2019-05-23T15:26:33.987Z,24.90
2019-05-23T15:29:01.454Z,24.90
2019-05-23T15:31:28.801Z,25.00
2019-05-23T15:36:23.435Z,25.20
2019-05-23T15:39:07.525Z,25.40
2019-05-23T15:41:20.152Z,24.90
2019-05-23T15:43:47.598Z,24.70
2019-05-23T15:46:14.852Z,24.80
2019-05-23T15:48:42.131Z,24.90
2019-05-23T15:51:11.236Z,24.80
2019-05-23T15:53:49.354Z,24.80
2019-05-23T15:56:28.124Z,24.90
2019-05-23T15:59:13.496Z,24.90
2019-05-23T16:01:56.869Z,24.80
2019-05-23T16:04:24.202Z,24.70
2019-05-23T16:06:51.927Z,24.80
2019-05-23T16:09:29.242Z,24.80
2019-05-23T16:11:49.909Z,24.80
2019-05-23T16:16:45.733Z,24.60
2019-05-23T16:19:13.222Z,24.40
2019-05-23T16:21:40.468Z,24.30
2019-05-23T16:24:08.349Z,24.20
2019-05-23T16:26:35.633Z,24.30
2019-05-23T16:29:03.261Z,24.30
2019-05-23T16:31:30.476Z,24.40
2019-05-23T16:33:57.782Z,24.50
2019-05-23T16:36:25.000Z,24.50
2019-05-23T16:38:52.304Z,24.70
2019-05-23T16:41:19.579Z,24.50
2019-05-23T16:43:46.872Z,24.20
2019-05-23T16:46:14.269Z,24.10
2019-05-23T16:48:41.492Z,24.00
2019-05-23T16:51:09.167Z,23.80
2019-05-23T16:53:36.558Z,23.70
2019-05-23T16:56:09.362Z,23.60
2019-05-23T16:59:05.011Z,23.50
2019-05-23T17:01:57.095Z,23.50
2019-05-23T17:04:31.218Z,23.40
2019-05-23T17:07:11.092Z,23.40
2019-05-23T17:09:44.760Z,23.40
2019-05-23T17:12:24.496Z,23.40
2019-05-23T17:15:09.302Z,23.30
2019-05-23T17:18:01.256Z,23.30
2019-05-23T17:20:35.354Z,23.20
2019-05-23T17:23:10.747Z,23.00
2019-05-23T17:25:57.519Z,23.00
2019-05-23T17:28:28.963Z,23.00
2019-05-23T17:31:02.403Z,23.00
2019-05-23T17:33:30.012Z,23.00
2019-05-23T17:35:57.304Z,22.90
2019-05-23T17:38:24.548Z,22.70
2019-05-23T17:40:51.998Z,22.60
2019-05-23T17:43:19.388Z,22.60
2019-05-23T17:45:47.122Z,22.60
2019-05-23T17:48:14.632Z,22.70
2019-05-23T17:50:41.908Z,22.60
2019-05-23T17:53:09.364Z,22.50
2019-05-23T17:55:37.145Z,22.50
2019-05-23T17:58:04.396Z,22.40
2019-05-23T18:00:38.642Z,22.40
2019-05-23T18:03:06.048Z,22.30
2019-05-23T18:05:33.638Z,22.20
2019-05-23T18:08:01.234Z,21.90
2019-05-23T18:10:44.154Z,21.90
2019-05-23T18:12:58.138Z,21.70
2019-05-23T18:15:26.117Z,21.70
2019-05-23T18:17:53.463Z,21.70
2019-05-23T18:20:21.252Z,21.80
2019-05-23T18:22:48.980Z,21.70
2019-05-23T18:25:17.141Z,21.60
2019-05-23T18:27:45.012Z,21.50
2019-05-23T18:30:23.266Z,21.30
2019-05-23T18:32:52.645Z,21.10
2019-05-23T18:35:19.984Z,20.90
2019-05-23T18:37:48.019Z,20.80
2019-05-23T18:40:15.807Z,20.70
2019-05-23T18:42:44.892Z,20.50
2019-05-23T18:45:13.544Z,20.50
2019-05-23T18:47:42.099Z,20.40
2019-05-23T18:50:10.809Z,20.20
2019-05-23T18:52:38.236Z,20.00
2019-05-23T18:55:05.965Z,19.80
2019-05-23T18:57:33.664Z,19.60
2019-05-23T19:00:01.247Z,19.40
2019-05-23T19:02:28.623Z,19.20
2019-05-23T19:04:55.961Z,19.10
2019-05-23T19:07:23.595Z,18.90
2019-05-23T19:09:51.706Z,18.70
2019-05-23T19:12:19.401Z,18.50
2019-05-23T19:14:46.700Z,18.20
2019-05-23T19:17:14.406Z,18.20
2019-05-23T19:19:42.064Z,18.00
2019-05-23T19:22:09.785Z,17.80
2019-05-23T19:24:37.161Z,17.80
2019-05-23T19:27:05.124Z,17.60
2019-05-23T19:29:33.336Z,17.50
2019-05-23T19:32:00.681Z,17.40
2019-05-23T19:34:28.036Z,17.10
2019-05-23T19:36:55.367Z,17.00
2019-05-23T19:39:24.242Z,16.80
2019-05-23T19:41:51.779Z,16.60
2019-05-23T19:44:19.072Z,16.50
2019-05-23T19:46:46.640Z,16.40
2019-05-23T19:49:14.137Z,16.30
2019-05-23T19:51:41.788Z,16.30
2019-05-23T19:54:09.419Z,16.20
2019-05-23T19:56:37.325Z,16.10
2019-05-23T19:59:04.650Z,16.10
2019-05-23T20:01:39.701Z,16.10
2019-05-23T20:04:07.098Z,16.00
2019-05-23T20:06:35.497Z,15.90
2019-05-23T20:09:09.436Z,15.70
2019-05-23T20:11:35.475Z,15.70
2019-05-23T20:14:02.761Z,15.70
2019-05-23T20:16:30.092Z,15.60
2019-05-23T20:18:57.425Z,15.50
2019-05-23T20:21:24.645Z,15.60
2019-05-23T20:23:51.939Z,15.50
2019-05-23T20:26:19.281Z,15.40
2019-05-23T20:28:46.524Z,15.40
2019-05-23T20:31:13.969Z,15.30
2019-05-23T20:33:41.351Z,15.20
2019-05-23T20:36:12.434Z,15.20
2019-05-23T20:38:39.457Z,15.10
2019-05-23T20:41:07.053Z,15.00
2019-05-23T20:43:34.425Z,15.00
2019-05-23T20:46:01.779Z,14.90
2019-05-23T20:48:29.082Z,14.70
2019-05-23T20:50:56.580Z,14.70
2019-05-23T20:53:24.065Z,14.70
2019-05-23T20:55:51.340Z,14.70
2019-05-23T20:58:18.714Z,14.60
2019-05-23T21:01:04.445Z,14.50
2019-05-23T21:03:34.680Z,14.50
2019-05-23T21:06:01.572Z,14.40
2019-05-23T21:08:29.177Z,14.40
2019-05-23T21:10:56.412Z,14.30
2019-05-23T21:13:23.939Z,14.30
2019-05-23T21:15:51.743Z,14.20
2019-05-23T21:18:19.585Z,14.20
2019-05-23T21:20:46.962Z,14.10
2019-05-23T21:23:14.191Z,14.10
2019-05-23T21:25:47.787Z,14.00
2019-05-23T21:28:15.056Z,14.00
2019-05-23T21:31:02.009Z,14.00
2019-05-23T21:33:29.474Z,13.90
2019-05-23T21:35:56.864Z,13.80
2019-05-23T21:38:24.965Z,13.70
2019-05-23T21:40:52.680Z,13.70
2019-05-23T21:43:19.987Z,13.60
2019-05-23T21:45:47.740Z,13.60
2019-05-23T21:48:15.027Z,13.60
2019-05-23T21:50:42.416Z,13.60
2019-05-23T21:53:10.376Z,13.50
2019-05-23T21:55:38.945Z,13.40
2019-05-23T21:58:06.969Z,13.40
2019-05-23T22:01:28.776Z,13.40
2019-05-23T22:04:19.453Z,13.30
2019-05-23T22:06:55.244Z,13.30
2019-05-23T22:09:20.529Z,13.20
2019-05-23T22:11:48.710Z,13.20
2019-05-23T22:14:16.053Z,13.10
2019-05-23T22:16:43.297Z,13.10
2019-05-23T22:19:13.096Z,13.10
2019-05-23T22:21:40.428Z,13.10
2019-05-23T22:24:08.483Z,13.00
2019-05-23T22:26:35.819Z,13.00
2019-05-23T22:29:03.128Z,12.90
2019-05-23T22:31:30.572Z,12.90
2019-05-23T22:34:04.256Z,12.80
2019-05-23T22:36:32.300Z,12.80
2019-05-23T22:39:00.479Z,12.80
2019-05-23T22:41:28.552Z,12.80
2019-05-23T22:43:56.929Z,12.70
2019-05-23T22:46:26.038Z,12.60
2019-05-23T22:48:53.411Z,12.60
2019-05-23T22:51:21.563Z,12.50
2019-05-23T22:53:48.907Z,12.60
2019-05-23T22:56:16.207Z,12.50
2019-05-23T22:58:43.690Z,12.50
2019-05-23T23:01:11.363Z,12.50
2019-05-23T23:03:38.951Z,12.50
2019-05-23T23:06:06.293Z,12.50
2019-05-23T23:08:33.573Z,12.50
2019-05-23T23:11:00.822Z,12.40
2019-05-23T23:13:38.091Z,12.40
2019-05-23T23:15:57.246Z,12.30
2019-05-23T23:18:25.262Z,12.30
2019-05-23T23:20:52.747Z,12.30
2019-05-23T23:23:19.967Z,12.20
2019-05-23T23:25:47.244Z,12.20
2019-05-23T23:28:14.547Z,12.10
2019-05-23T23:30:43.606Z,12.20
2019-05-23T23:33:11.056Z,12.20
2019-05-23T23:35:38.280Z,12.10
2019-05-23T23:38:05.534Z,12.10
2019-05-23T23:40:32.861Z,12.00
2019-05-23T23:43:00.085Z,12.00
2019-05-23T23:45:45.108Z,12.00
2019-05-23T23:48:30.741Z,12.00
2019-05-23T23:51:16.023Z,12.00
2019-05-23T23:54:01.421Z,12.00
2019-05-23T23:56:46.843Z,11.90
2019-05-23T23:59:13.599Z,11.90
